sensor_id;sensor_type;location;lat;lon;timestamp;P1;durP1;ratioP1;P2;durP2;ratioP2
57301;SDS011;43149;50.974;18.224;2022-12-29T00:06:10;3.50;;;2.40;;
57301;SDS011;43149;50.974;18.224;2022-12-29T00:16:16;4.30;;;3.90;;
57301;SDS011;43149;50.974;18.224;2022-12-29T00:23:55;17.90;;;8.20;;
57301;SDS011;43149;50.974;18.224;2022-12-29T00:35:08;9.30;;;3.00;;
57301;SDS011;43149;50.974;18.224;2022-12-29T00:45:50;14.20;;;2.80;;
57301;SDS011;43149;50.974;18.224;2022-12-29T00:55:52;10.20;;;5.40;;
57301;SDS011;43149;50.974;18.224;2022-12-29T01:05:36;6.80;;;3.60;;
57301;SDS011;43149;50.974;18.224;2022-12-29T01:15:19;5.20;;;2.30;;
57301;SDS011;43149;50.974;18.224;2022-12-29T01:25:03;8.90;;;3.80;;
57301;SDS011;43149;50.974;18.224;2022-12-29T01:34:47;4.50;;;2.80;;
57301;SDS011;43149;50.974;18.224;2022-12-29T01:54:57;0.70;;;0.70;;
57301;SDS011;43149;50.974;18.224;2022-12-29T02:05:03;8.70;;;4.50;;
57301;SDS011;43149;50.974;18.224;2022-12-29T02:14:52;6.40;;;4.40;;
57301;SDS011;43149;50.974;18.224;2022-12-29T02:55:47;5.40;;;3.70;;
57301;SDS011;43149;50.974;18.224;2022-12-29T03:16:55;3.40;;;3.10;;
57301;SDS011;43149;50.974;18.224;2022-12-29T03:27:05;7.60;;;3.30;;
57301;SDS011;43149;50.974;18.224;2022-12-29T03:36:52;5.50;;;3.20;;
57301;SDS011;43149;50.974;18.224;2022-12-29T03:46:38;1.80;;;1.70;;
57301;SDS011;43149;50.974;18.224;2022-12-29T03:56:22;6.30;;;3.40;;
57301;SDS011;43149;50.974;18.224;2022-12-29T04:06:05;5.50;;;4.80;;
57301;SDS011;43149;50.974;18.224;2022-12-29T04:15:49;5.30;;;2.90;;
57301;SDS011;43149;50.974;18.224;2022-12-29T04:25:51;3.80;;;2.70;;
57301;SDS011;43149;50.974;18.224;2022-12-29T04:35:34;4.50;;;4.00;;
57301;SDS011;43149;50.974;18.224;2022-12-29T04:45:17;9.20;;;4.60;;
57301;SDS011;43149;50.974;18.224;2022-12-29T05:02:17;5.20;;;2.10;;
57301;SDS011;43149;50.974;18.224;2022-12-29T05:19:17;4.90;;;3.40;;
57301;SDS011;43149;50.974;18.224;2022-12-29T05:36:17;9.60;;;4.60;;
57301;SDS011;43149;50.974;18.224;2022-12-29T05:53:17;6.90;;;2.50;;
57301;SDS011;43149;50.974;18.224;2022-12-29T06:10:18;5.80;;;3.60;;
57301;SDS011;43149;50.974;18.224;2022-12-29T06:20:01;6.70;;;4.20;;
57301;SDS011;43149;50.974;18.224;2022-12-29T06:29:45;10.80;;;3.40;;
57301;SDS011;43149;50.974;18.224;2022-12-29T06:39:28;5.60;;;1.70;;
57301;SDS011;43149;50.974;18.224;2022-12-29T06:49:12;7.50;;;4.30;;
57301;SDS011;43149;50.974;18.224;2022-12-29T06:58:56;12.50;;;4.60;;
57301;SDS011;43149;50.974;18.224;2022-12-29T07:15:57;5.80;;;3.60;;
57301;SDS011;43149;50.974;18.224;2022-12-29T07:25:40;13.90;;;4.50;;
57301;SDS011;43149;50.974;18.224;2022-12-29T07:35:23;4.20;;;3.90;;
57301;SDS011;43149;50.974;18.224;2022-12-29T07:45:07;11.50;;;6.50;;
57301;SDS011;43149;50.974;18.224;2022-12-29T07:54:52;16.20;;;2.90;;
57301;SDS011;43149;50.974;18.224;2022-12-29T08:04:36;15.80;;;3.60;;
57301;SDS011;43149;50.974;18.224;2022-12-29T08:14:19;3.20;;;2.70;;
57301;SDS011;43149;50.974;18.224;2022-12-29T08:24:03;11.10;;;7.40;;
57301;SDS011;43149;50.974;18.224;2022-12-29T08:28:55;13.70;;;7.80;;
57301;SDS011;43149;50.974;18.224;2022-12-29T08:38:38;10.20;;;4.80;;
57301;SDS011;43149;50.974;18.224;2022-12-29T08:48:22;8.90;;;1.20;;
57301;SDS011;43149;50.974;18.224;2022-12-29T08:58:08;5.20;;;3.10;;
57301;SDS011;43149;50.974;18.224;2022-12-29T09:07:57;13.40;;;6.60;;
57301;SDS011;43149;50.974;18.224;2022-12-29T09:17:41;21.90;;;6.90;;
57301;SDS011;43149;50.974;18.224;2022-12-29T09:27:34;11.20;;;4.50;;
57301;SDS011;43149;50.974;18.224;2022-12-29T09:37:19;16.90;;;6.60;;
57301;SDS011;43149;50.974;18.224;2022-12-29T09:47:18;13.60;;;5.60;;
57301;SDS011;43149;50.974;18.224;2022-12-29T09:57:29;11.00;;;6.90;;
57301;SDS011;43149;50.974;18.224;2022-12-29T10:07:44;15.00;;;6.00;;
57301;SDS011;43149;50.974;18.224;2022-12-29T10:27:51;7.10;;;4.20;;
57301;SDS011;43149;50.974;18.224;2022-12-29T10:37:58;11.20;;;5.90;;
57301;SDS011;43149;50.974;18.224;2022-12-29T10:48:19;14.30;;;4.00;;
57301;SDS011;43149;50.974;18.224;2022-12-29T10:58:13;19.30;;;5.80;;
57301;SDS011;43149;50.974;18.224;2022-12-29T11:08:10;8.80;;;5.20;;
57301;SDS011;43149;50.974;18.224;2022-12-29T11:18:21;15.10;;;5.30;;
57301;SDS011;43149;50.974;18.224;2022-12-29T11:28:31;34.40;;;7.60;;
57301;SDS011;43149;50.974;18.224;2022-12-29T11:45:49;10.40;;;6.20;;
57301;SDS011;43149;50.974;18.224;2022-12-29T11:55:56;5.20;;;3.30;;
57301;SDS011;43149;50.974;18.224;2022-12-29T12:06:27;12.90;;;5.30;;
57301;SDS011;43149;50.974;18.224;2022-12-29T12:34:10;7.00;;;5.30;;
57301;SDS011;43149;50.974;18.224;2022-12-29T13:05:50;16.10;;;7.40;;
57301;SDS011;43149;50.974;18.224;2022-12-29T13:26:32;17.60;;;7.20;;
57301;SDS011;43149;50.974;18.224;2022-12-29T13:36:54;19.10;;;5.60;;
57301;SDS011;43149;50.974;18.224;2022-12-29T13:57:45;7.00;;;4.90;;
57301;SDS011;43149;50.974;18.224;2022-12-29T14:08:56;8.90;;;5.80;;
57301;SDS011;43149;50.974;18.224;2022-12-29T14:18:53;20.00;;;7.60;;
57301;SDS011;43149;50.974;18.224;2022-12-29T14:28:54;24.10;;;7.90;;
57301;SDS011;43149;50.974;18.224;2022-12-29T14:49:25;9.40;;;5.60;;
57301;SDS011;43149;50.974;18.224;2022-12-29T14:59:29;15.40;;;8.10;;
57301;SDS011;43149;50.974;18.224;2022-12-29T15:09:27;29.10;;;9.60;;
57301;SDS011;43149;50.974;18.224;2022-12-29T15:19:35;12.40;;;6.60;;
57301;SDS011;43149;50.974;18.224;2022-12-29T15:29:37;20.60;;;6.20;;
57301;SDS011;43149;50.974;18.224;2022-12-29T15:39:41;34.80;;;13.80;;
57301;SDS011;43149;50.974;18.224;2022-12-29T15:49:49;18.10;;;10.00;;
57301;SDS011;43149;50.974;18.224;2022-12-29T16:10:48;21.50;;;9.30;;
57301;SDS011;43149;50.974;18.224;2022-12-29T16:20:41;14.50;;;7.20;;
57301;SDS011;43149;50.974;18.224;2022-12-29T16:30:41;7.50;;;5.50;;
57301;SDS011;43149;50.974;18.224;2022-12-29T16:50:51;25.10;;;8.80;;
57301;SDS011;43149;50.974;18.224;2022-12-29T17:00:41;12.20;;;5.20;;
57301;SDS011;43149;50.974;18.224;2022-12-29T17:10:28;26.80;;;9.30;;
57301;SDS011;43149;50.974;18.224;2022-12-29T17:20:31;17.80;;;8.80;;
57301;SDS011;43149;50.974;18.224;2022-12-29T17:30:21;20.90;;;9.70;;
57301;SDS011;43149;50.974;18.224;2022-12-29T17:47:40;25.20;;;11.40;;
57301;SDS011;43149;50.974;18.224;2022-12-29T17:57:27;25.80;;;9.10;;
57301;SDS011;43149;50.974;18.224;2022-12-29T18:07:16;15.00;;;9.30;;
57301;SDS011;43149;50.974;18.224;2022-12-29T18:17:10;27.60;;;13.20;;
57301;SDS011;43149;50.974;18.224;2022-12-29T18:26:54;24.40;;;8.80;;
57301;SDS011;43149;50.974;18.224;2022-12-29T18:36:38;24.30;;;9.40;;
57301;SDS011;43149;50.974;18.224;2022-12-29T18:46:23;24.60;;;11.80;;
57301;SDS011;43149;50.974;18.224;2022-12-29T18:56:09;21.60;;;11.10;;
57301;SDS011;43149;50.974;18.224;2022-12-29T19:05:52;27.40;;;14.10;;
57301;SDS011;43149;50.974;18.224;2022-12-29T19:15:43;20.80;;;12.70;;
57301;SDS011;43149;50.974;18.224;2022-12-29T19:25:32;21.20;;;12.70;;
57301;SDS011;43149;50.974;18.224;2022-12-29T19:35:18;26.70;;;10.20;;
57301;SDS011;43149;50.974;18.224;2022-12-29T19:45:03;19.20;;;9.00;;
57301;SDS011;43149;50.974;18.224;2022-12-29T19:54:51;28.20;;;9.50;;
57301;SDS011;43149;50.974;18.224;2022-12-29T20:04:46;17.70;;;8.40;;
57301;SDS011;43149;50.974;18.224;2022-12-29T20:14:30;15.80;;;8.40;;
57301;SDS011;43149;50.974;18.224;2022-12-29T20:24:15;24.40;;;10.30;;
57301;SDS011;43149;50.974;18.224;2022-12-29T20:34:03;14.30;;;7.00;;
57301;SDS011;43149;50.974;18.224;2022-12-29T20:43:51;26.40;;;10.20;;
57301;SDS011;43149;50.974;18.224;2022-12-29T21:01:05;53.80;;;13.60;;
57301;SDS011;43149;50.974;18.224;2022-12-29T21:10:51;26.20;;;10.00;;
57301;SDS011;43149;50.974;18.224;2022-12-29T21:20:36;26.60;;;9.20;;
57301;SDS011;43149;50.974;18.224;2022-12-29T21:30:31;20.10;;;8.80;;
57301;SDS011;43149;50.974;18.224;2022-12-29T21:40:17;16.30;;;4.90;;
57301;SDS011;43149;50.974;18.224;2022-12-29T21:50:39;21.70;;;11.10;;
57301;SDS011;43149;50.974;18.224;2022-12-29T22:01:39;15.80;;;10.40;;
57301;SDS011;43149;50.974;18.224;2022-12-29T22:12:38;54.30;;;22.00;;
57301;SDS011;43149;50.974;18.224;2022-12-29T22:22:43;29.20;;;14.10;;
57301;SDS011;43149;50.974;18.224;2022-12-29T22:32:27;28.10;;;13.60;;
57301;SDS011;43149;50.974;18.224;2022-12-29T22:42:12;17.20;;;8.30;;
57301;SDS011;43149;50.974;18.224;2022-12-29T22:51:56;12.20;;;8.60;;
57301;SDS011;43149;50.974;18.224;2022-12-29T23:01:40;11.00;;;7.90;;
57301;SDS011;43149;50.974;18.224;2022-12-29T23:11:24;24.60;;;12.90;;
57301;SDS011;43149;50.974;18.224;2022-12-29T23:21:09;16.30;;;7.10;;
57301;SDS011;43149;50.974;18.224;2022-12-29T23:31:23;17.10;;;9.60;;
57301;SDS011;43149;50.974;18.224;2022-12-29T23:41:08;11.40;;;6.70;;
57301;SDS011;43149;50.974;18.224;2022-12-29T23:58:17;16.10;;;9.60;;
